sensor_id;sensor_type;location;lat;lon;timestamp;pressure;altitude;pressure_sealevel;temperature;humidity
6349;BME280;3207;42.648;23.406;2023-02-02T00:00:54;100163.94;;;4.00;nan
6349;BME280;3207;42.648;23.406;2023-02-02T00:03:20;100168.66;;;3.90;nan
6349;BME280;3207;42.648;23.406;2023-02-02T00:05:48;100188.75;;;3.84;nan
6349;BME280;3207;42.648;23.406;2023-02-02T00:08:16;100170.53;;;3.66;nan
6349;BME280;3207;42.648;23.406;2023-02-02T00:10:45;100154.06;;;3.69;nan
6349;BME280;3207;42.648;23.406;2023-02-02T00:13:12;100162.72;;;3.68;nan
6349;BME280;3207;42.648;23.406;2023-02-02T00:15:39;100166.44;;;3.61;nan
6349;BME280;3207;42.648;23.406;2023-02-02T00:18:06;100158.53;;;3.65;nan
6349;BME280;3207;42.648;23.406;2023-02-02T00:20:33;100134.53;;;3.62;nan
6349;BME280;3207;42.648;23.406;2023-02-02T00:23:00;100138.81;;;3.63;nan
6349;BME280;3207;42.648;23.406;2023-02-02T00:25:27;100138.97;;;3.60;nan
6349;BME280;3207;42.648;23.406;2023-02-02T00:27:55;100161.38;;;3.59;nan
6349;BME280;3207;42.648;23.406;2023-02-02T00:30:22;100155.09;;;3.45;nan
6349;BME280;3207;42.648;23.406;2023-02-02T00:32:49;100153.84;;;3.53;nan
6349;BME280;3207;42.648;23.406;2023-02-02T00:35:17;100132.41;;;3.51;nan
6349;BME280;3207;42.648;23.406;2023-02-02T00:37:44;100134.13;;;3.30;nan
6349;BME280;3207;42.648;23.406;2023-02-02T00:40:11;100157.44;;;3.29;nan
6349;BME280;3207;42.648;23.406;2023-02-02T00:42:38;100162.53;;;3.30;nan
6349;BME280;3207;42.648;23.406;2023-02-02T00:45:12;100152.88;;;3.36;nan
6349;BME280;3207;42.648;23.406;2023-02-02T00:47:41;100137.19;;;3.40;nan
6349;BME280;3207;42.648;23.406;2023-02-02T00:50:10;100161.22;;;3.42;nan
6349;BME280;3207;42.648;23.406;2023-02-02T00:52:37;100165.91;;;3.33;nan
6349;BME280;3207;42.648;23.406;2023-02-02T00:55:05;100154.50;;;3.38;nan
6349;BME280;3207;42.648;23.406;2023-02-02T00:57:32;100159.53;;;3.41;nan
6349;BME280;3207;42.648;23.406;2023-02-02T00:59:59;100172.59;;;3.38;nan
6349;BME280;3207;42.648;23.406;2023-02-02T01:02:27;100138.00;;;3.20;nan
6349;BME280;3207;42.648;23.406;2023-02-02T01:04:54;100144.78;;;3.23;nan
6349;BME280;3207;42.648;23.406;2023-02-02T01:07:21;100160.75;;;3.11;nan
6349;BME280;3207;42.648;23.406;2023-02-02T01:09:48;100156.91;;;3.21;nan
6349;BME280;3207;42.648;23.406;2023-02-02T01:12:15;100155.06;;;3.24;nan
6349;BME280;3207;42.648;23.406;2023-02-02T01:14:41;100151.75;;;3.21;nan
6349;BME280;3207;42.648;23.406;2023-02-02T01:17:08;100142.03;;;3.27;nan
6349;BME280;3207;42.648;23.406;2023-02-02T01:19:37;100145.38;;;3.29;nan
6349;BME280;3207;42.648;23.406;2023-02-02T01:22:03;100139.56;;;3.24;nan
6349;BME280;3207;42.648;23.406;2023-02-02T01:24:30;100138.06;;;3.19;nan
6349;BME280;3207;42.648;23.406;2023-02-02T01:26:57;100147.75;;;3.14;nan
6349;BME280;3207;42.648;23.406;2023-02-02T01:29:24;100158.00;;;3.15;nan
6349;BME280;3207;42.648;23.406;2023-02-02T01:31:51;100164.19;;;3.11;nan
6349;BME280;3207;42.648;23.406;2023-02-02T01:34:18;100149.41;;;3.15;nan
6349;BME280;3207;42.648;23.406;2023-02-02T01:36:46;100155.84;;;3.26;nan
6349;BME280;3207;42.648;23.406;2023-02-02T01:39:13;100144.41;;;3.32;nan
6349;BME280;3207;42.648;23.406;2023-02-02T01:41:40;100134.91;;;3.33;nan
6349;BME280;3207;42.648;23.406;2023-02-02T01:47:07;100154.78;;;3.30;nan
6349;BME280;3207;42.648;23.406;2023-02-02T01:49:34;100140.91;;;3.33;nan
6349;BME280;3207;42.648;23.406;2023-02-02T01:52:04;100141.72;;;3.35;nan
6349;BME280;3207;42.648;23.406;2023-02-02T01:54:34;100144.19;;;3.38;nan
6349;BME280;3207;42.648;23.406;2023-02-02T01:57:05;100142.72;;;3.31;nan
6349;BME280;3207;42.648;23.406;2023-02-02T01:59:34;100131.31;;;3.37;nan
6349;BME280;3207;42.648;23.406;2023-02-02T02:02:01;100114.19;;;3.34;nan
6349;BME280;3207;42.648;23.406;2023-02-02T02:04:29;100108.84;;;3.39;nan
6349;BME280;3207;42.648;23.406;2023-02-02T02:06:58;100083.25;;;3.33;nan
6349;BME280;3207;42.648;23.406;2023-02-02T02:09:27;100086.41;;;3.39;nan
6349;BME280;3207;42.648;23.406;2023-02-02T02:11:54;100085.38;;;3.43;nan
6349;BME280;3207;42.648;23.406;2023-02-02T02:14:22;100093.13;;;3.43;nan
6349;BME280;3207;42.648;23.406;2023-02-02T02:17:19;100091.50;;;3.41;nan
6349;BME280;3207;42.648;23.406;2023-02-02T02:23:48;100100.50;;;3.32;nan
6349;BME280;3207;42.648;23.406;2023-02-02T02:27:20;100084.88;;;3.15;nan
6349;BME280;3207;42.648;23.406;2023-02-02T02:30:11;100100.81;;;3.24;nan
6349;BME280;3207;42.648;23.406;2023-02-02T02:32:49;100115.53;;;3.22;nan
6349;BME280;3207;42.648;23.406;2023-02-02T02:35:27;100110.19;;;3.27;nan
6349;BME280;3207;42.648;23.406;2023-02-02T02:37:58;100112.69;;;3.28;nan
6349;BME280;3207;42.648;23.406;2023-02-02T02:40:31;100106.16;;;3.20;nan
6349;BME280;3207;42.648;23.406;2023-02-02T02:43:05;100110.25;;;3.25;nan
6349;BME280;3207;42.648;23.406;2023-02-02T02:45:33;100111.94;;;3.26;nan
6349;BME280;3207;42.648;23.406;2023-02-02T02:48:03;100122.31;;;3.25;nan
6349;BME280;3207;42.648;23.406;2023-02-02T02:50:30;100119.97;;;3.19;nan
6349;BME280;3207;42.648;23.406;2023-02-02T02:53:01;100112.22;;;3.19;nan
6349;BME280;3207;42.648;23.406;2023-02-02T02:55:38;100107.97;;;3.18;nan
6349;BME280;3207;42.648;23.406;2023-02-02T02:58:09;100112.22;;;3.19;nan
6349;BME280;3207;42.648;23.406;2023-02-02T03:00:47;100107.31;;;3.13;nan
6349;BME280;3207;42.648;23.406;2023-02-02T03:03:28;100074.50;;;2.94;nan
6349;BME280;3207;42.648;23.406;2023-02-02T03:06:04;100108.28;;;3.10;nan
6349;BME280;3207;42.648;23.406;2023-02-02T03:08:38;100091.31;;;3.05;nan
6349;BME280;3207;42.648;23.406;2023-02-02T03:11:06;100097.47;;;3.01;nan
6349;BME280;3207;42.648;23.406;2023-02-02T03:13:35;100080.19;;;3.03;nan
6349;BME280;3207;42.648;23.406;2023-02-02T03:16:02;100081.69;;;2.86;nan
6349;BME280;3207;42.648;23.406;2023-02-02T03:18:31;100095.53;;;2.85;nan
6349;BME280;3207;42.648;23.406;2023-02-02T03:20:58;100078.09;;;2.90;nan
6349;BME280;3207;42.648;23.406;2023-02-02T03:23:25;100076.25;;;2.94;nan
6349;BME280;3207;42.648;23.406;2023-02-02T03:25:53;100097.91;;;2.90;nan
6349;BME280;3207;42.648;23.406;2023-02-02T03:28:20;100067.13;;;2.85;nan
6349;BME280;3207;42.648;23.406;2023-02-02T03:30:49;100075.72;;;2.86;nan
6349;BME280;3207;42.648;23.406;2023-02-02T03:33:19;100078.31;;;2.86;nan
6349;BME280;3207;42.648;23.406;2023-02-02T03:35:47;100062.81;;;2.86;nan
6349;BME280;3207;42.648;23.406;2023-02-02T03:38:14;100077.94;;;2.73;nan
6349;BME280;3207;42.648;23.406;2023-02-02T03:40:40;100077.09;;;2.73;nan
6349;BME280;3207;42.648;23.406;2023-02-02T03:43:07;100077.81;;;2.76;nan
6349;BME280;3207;42.648;23.406;2023-02-02T03:45:34;100069.31;;;2.74;nan
6349;BME280;3207;42.648;23.406;2023-02-02T03:48:02;100074.16;;;2.60;nan
6349;BME280;3207;42.648;23.406;2023-02-02T03:50:29;100084.47;;;2.60;nan
6349;BME280;3207;42.648;23.406;2023-02-02T03:52:58;100075.31;;;2.53;nan
6349;BME280;3207;42.648;23.406;2023-02-02T03:55:24;100077.53;;;2.62;nan
6349;BME280;3207;42.648;23.406;2023-02-02T03:57:51;100087.91;;;2.61;nan
6349;BME280;3207;42.648;23.406;2023-02-02T04:00:19;100098.28;;;2.59;nan
6349;BME280;3207;42.648;23.406;2023-02-02T04:02:45;100105.38;;;2.54;nan
6349;BME280;3207;42.648;23.406;2023-02-02T04:05:12;100100.13;;;2.55;nan
6349;BME280;3207;42.648;23.406;2023-02-02T04:07:39;100101.84;;;2.55;nan
6349;BME280;3207;42.648;23.406;2023-02-02T04:10:09;100106.00;;;2.59;nan
6349;BME280;3207;42.648;23.406;2023-02-02T04:12:35;100104.34;;;2.58;nan
6349;BME280;3207;42.648;23.406;2023-02-02T04:15:03;100096.53;;;2.60;nan
6349;BME280;3207;42.648;23.406;2023-02-02T04:17:30;100087.91;;;2.61;nan
6349;BME280;3207;42.648;23.406;2023-02-02T04:19:57;100099.91;;;2.62;nan
6349;BME280;3207;42.648;23.406;2023-02-02T04:22:24;100085.63;;;2.53;nan
6349;BME280;3207;42.648;23.406;2023-02-02T04:24:51;100103.28;;;2.64;nan
6349;BME280;3207;42.648;23.406;2023-02-02T04:27:19;100097.38;;;2.60;nan
6349;BME280;3207;42.648;23.406;2023-02-02T04:29:46;100093.84;;;2.63;nan
6349;BME280;3207;42.648;23.406;2023-02-02T04:32:13;100078.59;;;2.56;nan
6349;BME280;3207;42.648;23.406;2023-02-02T04:34:40;100080.16;;;2.61;nan
6349;BME280;3207;42.648;23.406;2023-02-02T04:37:07;100090.66;;;2.56;nan
6349;BME280;3207;42.648;23.406;2023-02-02T04:39:34;100083.94;;;2.52;nan
6349;BME280;3207;42.648;23.406;2023-02-02T04:42:01;100073.25;;;2.39;nan
6349;BME280;3207;42.648;23.406;2023-02-02T04:44:29;100079.31;;;2.38;nan
6349;BME280;3207;42.648;23.406;2023-02-02T04:46:56;100085.84;;;2.47;nan
6349;BME280;3207;42.648;23.406;2023-02-02T04:49:23;100088.13;;;2.54;nan
6349;BME280;3207;42.648;23.406;2023-02-02T04:51:49;100090.66;;;2.56;nan
6349;BME280;3207;42.648;23.406;2023-02-02T04:54:16;100097.63;;;2.54;nan
6349;BME280;3207;42.648;23.406;2023-02-02T04:56:43;100097.75;;;2.51;nan
6349;BME280;3207;42.648;23.406;2023-02-02T04:59:10;100092.53;;;2.52;nan
6349;BME280;3207;42.648;23.406;2023-02-02T05:01:38;100107.22;;;2.50;nan
6349;BME280;3207;42.648;23.406;2023-02-02T05:04:05;100098.56;;;2.51;nan
6349;BME280;3207;42.648;23.406;2023-02-02T05:06:31;100096.06;;;2.50;nan
6349;BME280;3207;42.648;23.406;2023-02-02T05:08:58;100086.63;;;2.49;nan
6349;BME280;3207;42.648;23.406;2023-02-02T05:11:25;100094.13;;;2.55;nan
6349;BME280;3207;42.648;23.406;2023-02-02T05:13:53;100090.78;;;2.53;nan
6349;BME280;3207;42.648;23.406;2023-02-02T05:16:21;100094.22;;;2.53;nan
6349;BME280;3207;42.648;23.406;2023-02-02T05:18:50;100072.09;;;2.46;nan
6349;BME280;3207;42.648;23.406;2023-02-02T05:21:17;100092.38;;;2.55;nan
6349;BME280;3207;42.648;23.406;2023-02-02T05:23:44;100098.38;;;2.56;nan
6349;BME280;3207;42.648;23.406;2023-02-02T05:26:13;100096.78;;;2.53;nan
6349;BME280;3207;42.648;23.406;2023-02-02T05:28:41;100100.44;;;2.48;nan
6349;BME280;3207;42.648;23.406;2023-02-02T05:31:08;100116.59;;;2.53;nan
6349;BME280;3207;42.648;23.406;2023-02-02T05:33:35;100120.00;;;2.53;nan
6349;BME280;3207;42.648;23.406;2023-02-02T05:36:04;100130.38;;;2.52;nan
6349;BME280;3207;42.648;23.406;2023-02-02T05:38:31;100129.66;;;2.48;nan
6349;BME280;3207;42.648;23.406;2023-02-02T05:40:58;100132.28;;;2.47;nan
6349;BME280;3207;42.648;23.406;2023-02-02T05:43:25;100136.00;;;2.40;nan
6349;BME280;3207;42.648;23.406;2023-02-02T05:45:52;100136.19;;;2.34;nan
6349;BME280;3207;42.648;23.406;2023-02-02T05:48:19;100129.38;;;2.33;nan
6349;BME280;3207;42.648;23.406;2023-02-02T05:50:53;100143.84;;;2.37;nan
6349;BME280;3207;42.648;23.406;2023-02-02T05:53:23;100144.72;;;2.36;nan
6349;BME280;3207;42.648;23.406;2023-02-02T05:55:50;100150.72;;;2.36;nan
6349;BME280;3207;42.648;23.406;2023-02-02T05:58:17;100133.88;;;2.28;nan
6349;BME280;3207;42.648;23.406;2023-02-02T06:00:44;100150.63;;;2.39;nan
6349;BME280;3207;42.648;23.406;2023-02-02T06:03:10;100155.03;;;2.36;nan
6349;BME280;3207;42.648;23.406;2023-02-02T06:05:38;100153.50;;;2.32;nan
6349;BME280;3207;42.648;23.406;2023-02-02T06:08:05;100156.00;;;2.33;nan
6349;BME280;3207;42.648;23.406;2023-02-02T06:10:33;100162.78;;;2.36;nan
6349;BME280;3207;42.648;23.406;2023-02-02T06:13:00;100154.38;;;2.31;nan
6349;BME280;3207;42.648;23.406;2023-02-02T06:15:26;100153.25;;;2.38;nan
6349;BME280;3207;42.648;23.406;2023-02-02T06:17:53;100157.56;;;2.37;nan
6349;BME280;3207;42.648;23.406;2023-02-02T06:20:20;100173.00;;;2.39;nan
6349;BME280;3207;42.648;23.406;2023-02-02T06:22:47;100165.91;;;2.44;nan
6349;BME280;3207;42.648;23.406;2023-02-02T06:25:14;100165.66;;;2.51;nan
6349;BME280;3207;42.648;23.406;2023-02-02T06:27:42;100171.66;;;2.52;nan
6349;BME280;3207;42.648;23.406;2023-02-02T06:30:11;100175.03;;;2.54;nan
6349;BME280;3207;42.648;23.406;2023-02-02T06:32:38;100179.94;;;2.60;nan
6349;BME280;3207;42.648;23.406;2023-02-02T06:35:06;100193.63;;;2.62;nan
6349;BME280;3207;42.648;23.406;2023-02-02T06:37:33;100201.19;;;2.67;nan
6349;BME280;3207;42.648;23.406;2023-02-02T06:39:59;100194.63;;;2.58;nan
6349;BME280;3207;42.648;23.406;2023-02-02T06:42:26;100212.50;;;2.64;nan
6349;BME280;3207;42.648;23.406;2023-02-02T06:44:54;100213.94;;;2.71;nan
6349;BME280;3207;42.648;23.406;2023-02-02T06:47:21;100215.28;;;2.81;nan
6349;BME280;3207;42.648;23.406;2023-02-02T06:49:48;100215.47;;;2.99;nan
6349;BME280;3207;42.648;23.406;2023-02-02T06:52:15;100214.69;;;3.18;nan
6349;BME280;3207;42.648;23.406;2023-02-02T06:54:41;100216.69;;;3.34;nan
6349;BME280;3207;42.648;23.406;2023-02-02T06:57:08;100226.59;;;3.44;nan
6349;BME280;3207;42.648;23.406;2023-02-02T06:59:35;100239.78;;;3.80;nan
6349;BME280;3207;42.648;23.406;2023-02-02T07:02:04;100243.88;;;4.45;nan
6349;BME280;3207;42.648;23.406;2023-02-02T07:04:30;100263.78;;;5.38;nan
6349;BME280;3207;42.648;23.406;2023-02-02T07:06:57;100271.00;;;6.04;nan
6349;BME280;3207;42.648;23.406;2023-02-02T07:09:24;100289.22;;;6.70;nan
6349;BME280;3207;42.648;23.406;2023-02-02T07:11:51;100297.88;;;7.19;nan
6349;BME280;3207;42.648;23.406;2023-02-02T07:14:17;100305.50;;;7.53;nan
6349;BME280;3207;42.648;23.406;2023-02-02T07:16:44;100314.09;;;7.85;nan
6349;BME280;3207;42.648;23.406;2023-02-02T07:19:12;100324.97;;;8.67;nan
6349;BME280;3207;42.648;23.406;2023-02-02T07:21:39;100329.34;;;9.65;nan
6349;BME280;3207;42.648;23.406;2023-02-02T07:24:06;100321.63;;;10.30;nan
6349;BME280;3207;42.648;23.406;2023-02-02T07:26:34;100330.44;;;10.92;nan
6349;BME280;3207;42.648;23.406;2023-02-02T07:29:01;100323.81;;;11.61;nan
6349;BME280;3207;42.648;23.406;2023-02-02T07:31:28;100329.69;;;12.12;nan
6349;BME280;3207;42.648;23.406;2023-02-02T07:33:55;100325.66;;;12.54;nan
6349;BME280;3207;42.648;23.406;2023-02-02T07:36:24;100339.75;;;12.75;nan
6349;BME280;3207;42.648;23.406;2023-02-02T07:38:52;100358.50;;;13.60;nan
6349;BME280;3207;42.648;23.406;2023-02-02T07:41:20;100351.88;;;14.52;nan
6349;BME280;3207;42.648;23.406;2023-02-02T07:43:47;100379.28;;;15.21;nan
6349;BME280;3207;42.648;23.406;2023-02-02T07:46:14;100385.66;;;15.99;nan
6349;BME280;3207;42.648;23.406;2023-02-02T07:48:42;100390.50;;;16.23;nan
6349;BME280;3207;42.648;23.406;2023-02-02T07:51:11;100383.59;;;16.41;nan
6349;BME280;3207;42.648;23.406;2023-02-02T07:53:43;100372.44;;;16.86;nan
6349;BME280;3207;42.648;23.406;2023-02-02T07:56:11;100380.25;;;17.24;nan
6349;BME280;3207;42.648;23.406;2023-02-02T07:58:39;100378.50;;;17.70;nan
6349;BME280;3207;42.648;23.406;2023-02-02T08:01:08;100372.94;;;17.90;nan
6349;BME280;3207;42.648;23.406;2023-02-02T08:03:36;100366.97;;;16.97;nan
6349;BME280;3207;42.648;23.406;2023-02-02T08:06:08;100383.50;;;16.99;nan
6349;BME280;3207;42.648;23.406;2023-02-02T08:08:36;100392.41;;;17.99;nan
6349;BME280;3207;42.648;23.406;2023-02-02T08:11:07;100385.44;;;18.69;nan
6349;BME280;3207;42.648;23.406;2023-02-02T08:13:34;100394.66;;;19.68;nan
6349;BME280;3207;42.648;23.406;2023-02-02T08:16:01;100418.13;;;20.05;nan
6349;BME280;3207;42.648;23.406;2023-02-02T08:18:27;100425.00;;;20.57;nan
6349;BME280;3207;42.648;23.406;2023-02-02T08:20:57;100429.31;;;21.14;nan
6349;BME280;3207;42.648;23.406;2023-02-02T08:23:24;100441.09;;;21.75;nan
6349;BME280;3207;42.648;23.406;2023-02-02T08:25:51;100457.06;;;22.22;nan
6349;BME280;3207;42.648;23.406;2023-02-02T08:28:20;100456.59;;;22.87;nan
6349;BME280;3207;42.648;23.406;2023-02-02T08:30:47;100459.41;;;23.23;nan
6349;BME280;3207;42.648;23.406;2023-02-02T08:33:14;100479.56;;;22.88;nan
6349;BME280;3207;42.648;23.406;2023-02-02T08:35:41;100477.56;;;23.28;nan
6349;BME280;3207;42.648;23.406;2023-02-02T08:38:08;100474.31;;;22.80;nan
6349;BME280;3207;42.648;23.406;2023-02-02T08:40:35;100453.03;;;22.72;nan
6349;BME280;3207;42.648;23.406;2023-02-02T08:43:02;100470.34;;;22.53;nan
6349;BME280;3207;42.648;23.406;2023-02-02T08:45:30;100472.81;;;22.55;nan
6349;BME280;3207;42.648;23.406;2023-02-02T08:47:57;100456.28;;;22.59;nan
6349;BME280;3207;42.648;23.406;2023-02-02T08:50:24;100457.53;;;22.49;nan
6349;BME280;3207;42.648;23.406;2023-02-02T08:52:51;100442.03;;;21.51;nan
6349;BME280;3207;42.648;23.406;2023-02-02T08:55:17;100457.91;;;21.21;nan
6349;BME280;3207;42.648;23.406;2023-02-02T08:57:44;100473.41;;;21.64;nan
6349;BME280;3207;42.648;23.406;2023-02-02T09:00:12;100493.41;;;21.60;nan
6349;BME280;3207;42.648;23.406;2023-02-02T09:02:40;100484.03;;;21.80;nan
6349;BME280;3207;42.648;23.406;2023-02-02T09:05:07;100483.63;;;22.00;nan
6349;BME280;3207;42.648;23.406;2023-02-02T09:07:35;100482.41;;;22.41;nan
6349;BME280;3207;42.648;23.406;2023-02-02T09:10:01;100475.97;;;22.27;nan
6349;BME280;3207;42.648;23.406;2023-02-02T09:12:29;100492.53;;;22.46;nan
6349;BME280;3207;42.648;23.406;2023-02-02T09:14:56;100490.72;;;22.92;nan
6349;BME280;3207;42.648;23.406;2023-02-02T09:17:22;100473.78;;;23.96;nan
6349;BME280;3207;42.648;23.406;2023-02-02T09:19:51;100493.34;;;24.90;nan
6349;BME280;3207;42.648;23.406;2023-02-02T09:22:17;100490.63;;;25.67;nan
6349;BME280;3207;42.648;23.406;2023-02-02T09:24:45;100493.06;;;26.57;nan
6349;BME280;3207;42.648;23.406;2023-02-02T09:27:12;100489.09;;;26.33;nan
6349;BME280;3207;42.648;23.406;2023-02-02T09:29:39;100488.94;;;26.54;nan
6349;BME280;3207;42.648;23.406;2023-02-02T09:32:06;100482.75;;;27.53;nan
6349;BME280;3207;42.648;23.406;2023-02-02T09:34:33;100479.50;;;28.02;nan
6349;BME280;3207;42.648;23.406;2023-02-02T09:37:01;100484.41;;;28.25;nan
6349;BME280;3207;42.648;23.406;2023-02-02T09:39:28;100501.03;;;28.47;nan
6349;BME280;3207;42.648;23.406;2023-02-02T09:42:17;100498.84;;;28.93;nan
6349;BME280;3207;42.648;23.406;2023-02-02T09:44:56;100486.88;;;29.39;nan
6349;BME280;3207;42.648;23.406;2023-02-02T09:47:33;100497.63;;;30.30;nan
6349;BME280;3207;42.648;23.406;2023-02-02T09:50:04;100490.56;;;31.01;nan
6349;BME280;3207;42.648;23.406;2023-02-02T09:52:39;100487.66;;;31.37;nan
6349;BME280;3207;42.648;23.406;2023-02-02T09:55:14;100478.56;;;32.30;nan
6349;BME280;3207;42.648;23.406;2023-02-02T09:57:46;100478.81;;;32.90;nan
6349;BME280;3207;42.648;23.406;2023-02-02T10:00:30;100496.84;;;32.85;nan
6349;BME280;3207;42.648;23.406;2023-02-02T10:03:01;100498.38;;;31.67;nan
6349;BME280;3207;42.648;23.406;2023-02-02T10:05:38;100491.72;;;30.40;nan
6349;BME280;3207;42.648;23.406;2023-02-02T10:08:14;100462.94;;;30.04;nan
6349;BME280;3207;42.648;23.406;2023-02-02T10:10:45;100503.53;;;31.57;nan
6349;BME280;3207;42.648;23.406;2023-02-02T10:13:15;100523.81;;;32.91;nan
6349;BME280;3207;42.648;23.406;2023-02-02T10:15:49;100520.97;;;34.13;nan
6349;BME280;3207;42.648;23.406;2023-02-02T10:18:21;100534.56;;;34.89;nan
6349;BME280;3207;42.648;23.406;2023-02-02T10:20:55;100534.94;;;35.77;nan
6349;BME280;3207;42.648;23.406;2023-02-02T10:23:26;100517.91;;;36.02;nan
6349;BME280;3207;42.648;23.406;2023-02-02T10:25:55;100513.41;;;36.43;nan
6349;BME280;3207;42.648;23.406;2023-02-02T10:28:36;100516.97;;;37.19;nan
6349;BME280;3207;42.648;23.406;2023-02-02T10:31:14;100515.97;;;37.95;nan
6349;BME280;3207;42.648;23.406;2023-02-02T10:33:51;100516.97;;;38.19;nan
6349;BME280;3207;42.648;23.406;2023-02-02T10:36:27;100527.50;;;37.82;nan
6349;BME280;3207;42.648;23.406;2023-02-02T10:39:02;100519.72;;;38.63;nan
6349;BME280;3207;42.648;23.406;2023-02-02T10:41:40;100524.50;;;39.68;nan
6349;BME280;3207;42.648;23.406;2023-02-02T10:44:21;100523.50;;;39.83;nan
6349;BME280;3207;42.648;23.406;2023-02-02T10:46:53;100516.22;;;40.16;nan
6349;BME280;3207;42.648;23.406;2023-02-02T10:49:26;100505.91;;;39.89;nan
6349;BME280;3207;42.648;23.406;2023-02-02T10:51:59;100503.16;;;39.65;nan
6349;BME280;3207;42.648;23.406;2023-02-02T10:54:43;100496.72;;;39.99;nan
6349;BME280;3207;42.648;23.406;2023-02-02T10:57:15;100500.38;;;39.70;nan
6349;BME280;3207;42.648;23.406;2023-02-02T10:59:50;100507.41;;;40.00;nan
6349;BME280;3207;42.648;23.406;2023-02-02T11:02:22;100507.06;;;40.44;nan
6349;BME280;3207;42.648;23.406;2023-02-02T11:04:49;100495.56;;;40.93;nan
6349;BME280;3207;42.648;23.406;2023-02-02T11:07:35;100486.97;;;41.00;nan
6349;BME280;3207;42.648;23.406;2023-02-02T11:10:03;100500.13;;;41.30;nan
6349;BME280;3207;42.648;23.406;2023-02-02T11:12:32;100498.00;;;41.82;nan
6349;BME280;3207;42.648;23.406;2023-02-02T11:15:02;100492.91;;;41.76;nan
6349;BME280;3207;42.648;23.406;2023-02-02T11:17:30;100493.69;;;40.00;nan
6349;BME280;3207;42.648;23.406;2023-02-02T11:19:57;100493.19;;;40.17;nan
6349;BME280;3207;42.648;23.406;2023-02-02T11:22:30;100494.94;;;40.27;nan
6349;BME280;3207;42.648;23.406;2023-02-02T11:25:00;100484.81;;;39.90;nan
6349;BME280;3207;42.648;23.406;2023-02-02T11:27:31;100490.38;;;39.32;nan
6349;BME280;3207;42.648;23.406;2023-02-02T11:30:00;100480.97;;;38.56;nan
6349;BME280;3207;42.648;23.406;2023-02-02T11:32:35;100478.19;;;38.90;nan
6349;BME280;3207;42.648;23.406;2023-02-02T11:35:18;100482.88;;;39.90;nan
6349;BME280;3207;42.648;23.406;2023-02-02T11:38:04;100490.75;;;40.53;nan
6349;BME280;3207;42.648;23.406;2023-02-02T11:40:35;100486.41;;;40.84;nan
6349;BME280;3207;42.648;23.406;2023-02-02T11:43:16;100481.00;;;40.60;nan
6349;BME280;3207;42.648;23.406;2023-02-02T11:45:46;100483.66;;;40.14;nan
6349;BME280;3207;42.648;23.406;2023-02-02T11:48:16;100477.50;;;39.61;nan
6349;BME280;3207;42.648;23.406;2023-02-02T11:50:45;100477.34;;;39.24;nan
6349;BME280;3207;42.648;23.406;2023-02-02T11:53:24;100483.66;;;39.48;nan
6349;BME280;3207;42.648;23.406;2023-02-02T11:55:52;100473.75;;;38.99;nan
6349;BME280;3207;42.648;23.406;2023-02-02T11:58:23;100460.19;;;38.84;nan
6349;BME280;3207;42.648;23.406;2023-02-02T12:00:57;100448.25;;;38.36;nan
6349;BME280;3207;42.648;23.406;2023-02-02T12:03:30;100447.50;;;37.81;nan
6349;BME280;3207;42.648;23.406;2023-02-02T12:05:58;100454.94;;;37.70;nan
6349;BME280;3207;42.648;23.406;2023-02-02T12:08:28;100452.94;;;36.86;nan
6349;BME280;3207;42.648;23.406;2023-02-02T12:10:59;100451.56;;;35.71;nan
6349;BME280;3207;42.648;23.406;2023-02-02T12:13:45;100441.63;;;35.34;nan
6349;BME280;3207;42.648;23.406;2023-02-02T12:16:35;100422.75;;;34.75;nan
6349;BME280;3207;42.648;23.406;2023-02-02T12:19:32;100407.78;;;33.65;nan
6349;BME280;3207;42.648;23.406;2023-02-02T12:22:11;100402.53;;;32.48;nan
6349;BME280;3207;42.648;23.406;2023-02-02T12:24:50;100386.75;;;31.32;nan
6349;BME280;3207;42.648;23.406;2023-02-02T12:27:30;100387.59;;;28.99;nan
6349;BME280;3207;42.648;23.406;2023-02-02T12:30:26;100392.97;;;26.83;nan
6349;BME280;3207;42.648;23.406;2023-02-02T12:33:07;100393.09;;;25.13;nan
6349;BME280;3207;42.648;23.406;2023-02-02T12:35:54;100387.88;;;23.92;nan
6349;BME280;3207;42.648;23.406;2023-02-02T12:38:43;100374.31;;;22.99;nan
6349;BME280;3207;42.648;23.406;2023-02-02T12:44:11;100357.75;;;21.75;nan
6349;BME280;3207;42.648;23.406;2023-02-02T12:46:55;100351.53;;;21.29;nan
6349;BME280;3207;42.648;23.406;2023-02-02T12:49:40;100332.00;;;20.81;nan
6349;BME280;3207;42.648;23.406;2023-02-02T12:52:26;100347.63;;;20.27;nan
6349;BME280;3207;42.648;23.406;2023-02-02T12:55:07;100354.88;;;19.93;nan
6349;BME280;3207;42.648;23.406;2023-02-02T12:57:44;100353.81;;;19.61;nan
6349;BME280;3207;42.648;23.406;2023-02-02T13:00:35;100364.59;;;19.26;nan
6349;BME280;3207;42.648;23.406;2023-02-02T13:03:23;100365.72;;;19.15;nan
6349;BME280;3207;42.648;23.406;2023-02-02T13:06:00;100352.78;;;18.86;nan
6349;BME280;3207;42.648;23.406;2023-02-02T13:08:33;100352.00;;;18.68;nan
6349;BME280;3207;42.648;23.406;2023-02-02T13:11:05;100354.06;;;18.39;nan
6349;BME280;3207;42.648;23.406;2023-02-02T13:13:52;100332.47;;;18.08;nan
6349;BME280;3207;42.648;23.406;2023-02-02T13:16:20;100347.03;;;17.94;nan
6349;BME280;3207;42.648;23.406;2023-02-02T13:18:53;100340.03;;;17.58;nan
6349;BME280;3207;42.648;23.406;2023-02-02T13:21:22;100340.22;;;17.46;nan
6349;BME280;3207;42.648;23.406;2023-02-02T13:23:52;100338.00;;;17.42;nan
6349;BME280;3207;42.648;23.406;2023-02-02T13:26:23;100338.91;;;17.33;nan
6349;BME280;3207;42.648;23.406;2023-02-02T13:28:56;100312.84;;;16.83;nan
6349;BME280;3207;42.648;23.406;2023-02-02T13:31:26;100322.03;;;16.60;nan
6349;BME280;3207;42.648;23.406;2023-02-02T13:34:01;100333.28;;;16.42;nan
6349;BME280;3207;42.648;23.406;2023-02-02T13:36:34;100331.50;;;16.43;nan
6349;BME280;3207;42.648;23.406;2023-02-02T13:39:12;100337.75;;;16.42;nan
6349;BME280;3207;42.648;23.406;2023-02-02T13:41:40;100333.31;;;16.23;nan
6349;BME280;3207;42.648;23.406;2023-02-02T13:44:12;100327.06;;;16.15;nan
6349;BME280;3207;42.648;23.406;2023-02-02T13:46:47;100316.13;;;16.09;nan
6349;BME280;3207;42.648;23.406;2023-02-02T13:49:22;100331.38;;;16.16;nan
6349;BME280;3207;42.648;23.406;2023-02-02T13:51:56;100334.72;;;15.98;nan
6349;BME280;3207;42.648;23.406;2023-02-02T13:58:15;100344.56;;;15.96;nan